Time;durP1;ratioP1;P1;durP2;ratioP2;P2;SDS_P1;SDS_P2;PMS_P1;PMS_P2;Temp;Humidity;BMP_temperature;BMP_pressure;BME280_temperature;BME280_humidity;BME280_pressure;Samples;Min_cycle;Max_cycle;Signal;HPM_P1;HPM_P2
2023/09/07 00:03:44;;;;;;;4.47;2.88;;;;;;;22.14;46.60;100993.97;41850335;28;20094;-75
2023/09/07 00:23:45;;;;;;;3.35;2.85;;;;;;;21.99;46.54;101025.75;41845916;28;20049;-74
2023/09/07 00:43:45;;;;;;;5.63;3.40;;;;;;;21.94;45.96;101008.59;41858177;28;20515;-75
2023/09/07 01:03:45;;;;;;;4.53;3.35;;;;;;;21.85;46.17;101020.59;41839486;28;20044;-75
2023/09/07 01:23:47;;;;;;;5.72;3.03;;;;;;;21.55;46.83;101027.88;41852017;28;20041;-75
2023/09/07 01:43:48;;;;;;;4.40;2.83;;;;;;;21.46;46.63;101022.38;41841902;28;20041;-75
2023/09/07 02:03:48;;;;;;;6.28;3.30;;;;;;;21.36;47.08;101030.09;41857167;28;20052;-74
2023/09/07 02:23:49;;;;;;;5.28;3.40;;;;;;;21.10;47.66;101014.25;41825639;28;20059;-79
2023/09/07 02:43:49;;;;;;;4.97;3.50;;;;;;;20.74;47.45;100995.53;41877148;28;20051;-74
2023/09/07 03:03:49;;;;;;;4.00;3.40;;;;;;;20.62;47.97;100994.53;41848225;28;22912;-75
2023/09/07 03:23:50;;;;;;;4.72;3.30;;;;;;;20.71;48.49;101042.25;41858257;28;20136;-74
2023/09/07 03:43:50;;;;;;;6.03;3.65;;;;;;;20.63;48.70;101054.09;41828503;28;20041;-77
2023/09/07 04:03:50;;;;;;;8.88;4.32;;;;;;;20.66;48.95;101052.22;41842095;28;20137;-77
2023/09/07 04:23:51;;;;;;;10.15;4.53;;;;;;;22.73;46.05;101058.38;41841196;28;20044;-74
2023/09/07 04:43:51;;;;;;;7.40;3.35;;;;;;;22.87;46.31;101039.69;41973671;28;20161;-72
2023/09/07 05:03:52;;;;;;;8.25;3.63;;;;;;;22.86;46.52;101041.53;41964380;28;20048;-74
2023/09/07 05:23:52;;;;;;;13.25;4.70;;;;;;;21.17;48.85;101070.84;41967653;28;20607;-75
2023/09/07 05:43:53;;;;;;;9.57;4.10;;;;;;;22.88;46.45;101072.25;42004166;27;20495;-73
2023/09/07 06:03:54;;;;;;;12.13;4.55;;;;;;;22.90;46.82;101050.06;42003411;28;20097;-72
2023/09/07 06:23:54;;;;;;;14.93;5.00;;;;;;;23.28;46.50;101098.38;42027177;27;20094;-74
2023/09/07 06:43:55;;;;;;;11.55;4.40;;;;;;;23.05;46.45;101044.59;42010881;27;20119;-74
2023/09/07 07:03:56;;;;;;;11.32;4.40;;;;;;;23.35;47.09;101086.34;42028202;28;20465;-75
2023/09/07 07:23:57;;;;;;;8.02;3.63;;;;;;;23.63;47.39;101124.75;42012358;28;20040;-75
2023/09/07 07:43:57;;;;;;;16.95;4.40;;;;;;;23.56;48.30;101091.81;42024373;28;20078;-74
2023/09/07 08:03:57;;;;;;;15.85;3.92;;;;;;;23.80;48.07;101118.19;42032504;28;20062;-78
2023/09/07 08:23:59;;;;;;;9.35;3.58;;;;;;;23.55;48.10;101076.09;42029589;28;20079;-75
2023/09/07 08:44:00;;;;;;;12.35;3.80;;;;;;;23.83;47.96;101103.88;42031229;28;20490;-75
2023/09/07 09:04:01;;;;;;;10.23;3.80;;;;;;;23.71;47.88;101070.47;42017785;28;20097;-75
2023/09/07 09:24:01;;;;;;;38.90;4.70;;;;;;;23.91;48.88;101077.69;42071651;28;20051;-79
2023/09/07 09:44:03;;;;;;;20.38;4.28;;;;;;;24.06;48.91;101082.72;42083696;27;20055;-78
2023/09/07 10:04:04;;;;;;;18.85;4.25;;;;;;;24.28;47.77;101050.97;42087117;27;20047;-76
2023/09/07 10:24:04;;;;;;;13.65;3.55;;;;;;;24.53;45.80;101034.91;42053769;28;20036;-77
2023/09/07 10:44:06;;;;;;;36.40;6.10;;;;;;;25.12;42.92;101019.50;42052255;28;20104;-75
2023/09/07 11:04:08;;;;;;;12.23;4.32;;;;;;;25.03;41.05;100960.19;42052800;28;20033;-75
2023/09/07 11:24:08;;;;;;;5.32;2.90;;;;;;;25.51;38.49;101001.19;42070496;28;20516;-77
2023/09/07 11:44:09;;;;;;;5.43;3.50;;;;;;;26.42;37.10;100987.06;42083600;27;20093;-78
2023/09/07 12:04:09;;;;;;;5.22;3.20;;;;;;;26.21;39.89;100970.28;42075254;28;20047;-77
2023/09/07 12:24:12;;;;;;;5.25;2.88;;;;;;;25.54;38.41;100893.03;42055211;27;20131;-80
2023/09/07 12:44:12;;;;;;;4.55;3.10;;;;;;;26.23;37.54;100932.13;42070586;27;20037;-78
2023/09/07 13:04:14;;;;;;;5.20;2.90;;;;;;;25.72;36.97;100887.09;42095686;28;20468;-81
2023/09/07 13:24:14;;;;;;;87.47;7.97;;;;;;;26.30;37.97;100910.19;42036407;28;20053;-75
2023/09/07 13:44:16;;;;;;;88.10;8.55;;;;;;;26.41;37.66;100914.53;41998671;28;20032;-74
2023/09/07 14:04:16;;;;;;;10.30;3.05;;;;;;;26.15;34.81;100901.81;41992253;28;20076;-72
2023/09/07 14:24:17;;;;;;;11.65;3.13;;;;;;;26.50;37.32;100889.78;41995654;28;20131;-72
2023/09/07 14:44:17;;;;;;;6.25;3.03;;;;;;;26.56;36.12;100876.91;41968375;28;20066;-73
2023/09/07 15:04:17;;;;;;;5.72;3.20;;;;;;;26.21;34.08;100829.59;41941684;27;20082;-74
2023/09/07 15:24:18;;;;;;;8.10;3.15;;;;;;;26.28;31.21;100860.88;41951401;27;20049;-74
2023/09/07 15:44:19;;;;;;;4.80;3.38;;;;;;;26.38;31.90;100864.38;42024761;28;20044;-73
2023/09/07 16:04:19;;;;;;;5.78;3.08;;;;;;;26.01;31.76;100782.78;41969416;27;20048;-77
2023/09/07 16:24:20;;;;;;;4.45;2.97;;;;;;;26.42;33.63;100864.94;41967200;28;20051;-79
2023/09/07 16:44:22;;;;;;;5.28;3.28;;;;;;;26.33;34.55;100899.31;41995214;28;20473;-78
2023/09/07 17:04:24;;;;;;;5.05;3.45;;;;;;;25.79;34.53;100868.81;41993132;28;20072;-81
2023/09/07 17:24:28;;;;;;;17.90;4.63;;;;;;;25.54;37.77;100881.59;41959304;27;20059;-78
2023/09/07 17:44:28;;;;;;;10.45;4.38;;;;;;;25.66;37.34;100909.69;41938417;28;20566;-83
2023/09/07 18:04:29;;;;;;;14.52;6.00;;;;;;;25.72;40.38;100905.66;41978705;28;20040;-82
2023/09/07 18:24:32;;;;;;;15.82;4.93;;;;;;;25.92;40.49;100951.63;42013722;28;20535;-79
2023/09/07 18:44:33;;;;;;;7.78;4.78;;;;;;;25.57;38.91;100969.69;42043293;28;20040;-78
2023/09/07 19:04:38;;;;;;;11.93;5.38;;;;;;;24.95;38.95;100944.94;42059666;28;20041;-81
2023/09/07 19:24:40;;;;;;;8.63;4.70;;;;;;;23.98;39.97;100941.34;41977181;27;20047;-80
2023/09/07 19:44:42;;;;;;;11.93;5.05;;;;;;;23.80;41.29;100959.50;41977393;27;20040;-75
2023/09/07 20:04:42;;;;;;;11.18;4.68;;;;;;;23.35;42.07;100962.16;42010379;28;20040;-77
2023/09/07 20:24:45;;;;;;;8.10;4.72;;;;;;;23.27;42.71;100999.75;41974728;28;20063;-75
2023/09/07 20:44:46;;;;;;;8.82;5.10;;;;;;;22.81;43.01;100953.91;41971683;28;20043;-75
2023/09/07 21:04:47;;;;;;;9.10;4.72;;;;;;;22.56;44.25;100931.13;42004595;28;20149;-76
2023/09/07 21:24:47;;;;;;;9.63;5.55;;;;;;;22.89;44.60;100948.03;42005710;28;20037;-74
2023/09/07 21:44:49;;;;;;;11.07;5.15;;;;;;;23.09;44.69;100967.63;42008394;28;20064;-76
2023/09/07 22:04:51;;;;;;;8.57;5.10;;;;;;;22.90;45.80;100964.69;42005917;28;20036;-75
2023/09/07 22:24:53;;;;;;;9.63;4.70;;;;;;;22.84;46.32;100982.69;42014371;28;20043;-74
2023/09/07 22:44:53;;;;;;;8.57;5.03;;;;;;;22.75;46.93;100993.09;42000821;28;20129;-75
2023/09/07 23:04:54;;;;;;;9.52;5.13;;;;;;;22.70;47.24;100994.28;41990033;28;20041;-74
2023/09/07 23:24:54;;;;;;;7.85;4.57;;;;;;;22.43;47.54;100985.78;41984210;27;20128;-74
2023/09/07 23:44:55;;;;;;;10.15;5.15;;;;;;;22.30;47.97;100991.91;41998290;27;20049;-74
